首页
METAR-TAF:

METAR-TAF

机场 :

蘇黎世機場

苏黎世, 瑞士

纬度: 47-29N, 经度: 008-32E, 海拔: 436米

当前天气观测

该预报发布于1小时和10分钟前的23:50 UTC
风速1节,风向多变
温度 3°C
湿度 87%
气压 1006 hPa
能见度10公里或以上
少量云层高于1100英尺
多云层高于1500英尺
多云层高于2000英尺

METAR: LSZH 172350Z VRB01KT 9999 FEW011 BKN015 BKN020 03/01 Q1006 NOSIG

时间: 02:00 (01:00 UTC)

预报

该预报发布于1小时和35分钟前的23:25 UTC
预报有效从18日的 00点(UTC)到 19日的 06点(UTC)
风速3节,风向多变
能见度10公里或以上
散云层高于1100英尺
多云层高于1300英尺
短暂存在
从 18日的 02点(UTC)到 18日的 10点(UTC)
能見度: 4000
几率 40% :
短暂存在
从 18日的 02点(UTC)到 18日的 09点(UTC)
能見度: 2500
雨, 雪
成为
从 18日的 08点(UTC)到 18日的 10点(UTC)
风速8节,风向西转西南
多云层高于3000英尺
成为
从 18日的 18点(UTC)到 18日的 21点(UTC)
能見度: 4000
轻雾
几率 30%
从 18日的 19点(UTC)到 19日的 03点(UTC)
能見度: 1500
部分雾

TAF: LSZH 172325Z 1800/1906 VRB03KT 9999 SCT011 BKN013 TX07/1814Z TN01/1806Z TN01/1906Z TEMPO 1802/1810 4000 RA PROB40 TEMPO 1802/1809 2500 RASN BECMG 1808/1810 24008KT BKN030 BECMG 1818/1821 4000 BR PROB30 1819/1903 1500 PRFG

超过4000个机场的气象观测和天气预报(METAR&TAF报告)。

可查询的气象台以黄色和红色小点在地图上表示。

将鼠标移到小点上方,可查看气象台名称。

然后点击查看天气观测和预报。

如需切换地图:点击带黑十字的绿色按钮放大地图;点击带横线的绿色按钮缩小地图;或者点击绿色箭头查看邻近地区的地图。


METAR-TAF: